Time;durP1;ratioP1;P1;durP2;ratioP2;P2;SDS_P1;SDS_P2;PMS_P1;PMS_P2;Temp;Humidity;BMP_temperature;BMP_pressure;BME280_temperature;BME280_humidity;BME280_pressure;Samples;Min_cycle;Max_cycle;Signal;HPM_P1;HPM_P2
2022/07/11 00:02:13;;;;;;;6.93;1.70;;;;;;;;;;4961677;28;20141;-73
2022/07/11 00:04:39;;;;;;;6.45;1.63;;;;;;;;;;4963140;28;20041;-74
2022/07/11 00:07:04;;;;;;;6.78;1.80;;;;;;;;;;4960351;28;20101;-74
2022/07/11 00:09:30;;;;;;;7.88;1.70;;;;;;;;;;4960354;28;20023;-74
2022/07/11 00:11:58;;;;;;;5.50;1.50;;;;;;;;;;4961965;28;20035;-74
2022/07/11 00:14:23;;;;;;;7.50;1.60;;;;;;;;;;4954798;28;20053;-75
2022/07/11 00:16:52;;;;;;;4.75;1.70;;;;;;;;;;4960890;28;20038;-74
2022/07/11 00:19:18;;;;;;;8.93;1.77;;;;;;;;;;4960383;28;20030;-75
2022/07/11 00:21:43;;;;;;;11.80;1.98;;;;;;;;;;4959676;28;20034;-75
2022/07/11 00:24:09;;;;;;;10.40;2.35;;;;;;;;;;4962924;28;20023;-74
2022/07/11 00:26:34;;;;;;;8.43;2.30;;;;;;;;;;4959252;28;20581;-74
2022/07/11 00:29:00;;;;;;;5.90;2.33;;;;;;;;;;4960635;28;20818;-74
2022/07/11 00:31:25;;;;;;;9.55;2.28;;;;;;;;;;4960483;28;20030;-74
2022/07/11 00:33:51;;;;;;;9.32;2.22;;;;;;;;;;4961335;28;20872;-73
2022/07/11 00:36:16;;;;;;;8.00;1.92;;;;;;;;;;4960776;28;20046;-75
2022/07/11 00:38:41;;;;;;;5.72;1.92;;;;;;;;;;4965526;28;20042;-75
2022/07/11 00:41:07;;;;;;;8.10;1.67;;;;;;;;;;4958946;28;20078;-73
2022/07/11 00:43:38;;;;;;;8.77;1.73;;;;;;;;;;4962015;28;20039;-73
2022/07/11 00:46:04;;;;;;;5.25;1.98;;;;;;;;;;4960219;28;20034;-74
2022/07/11 00:48:32;;;;;;;5.47;1.75;;;;;;;;;;4960454;28;20038;-75
2022/07/11 00:50:57;;;;;;;5.65;1.77;;;;;;;;;;4958652;28;20065;-73
2022/07/11 00:53:23;;;;;;;6.93;1.60;;;;;;;;;;4960591;28;20069;-74
2022/07/11 00:55:52;;;;;;;4.15;1.52;;;;;;;;;;4959214;28;20703;-74
2022/07/11 00:58:18;;;;;;;8.05;2.00;;;;;;;;;;4961337;28;20125;-74
2022/07/11 01:00:43;;;;;;;8.75;1.98;;;;;;;;;;4943239;28;20069;-75
2022/07/11 01:03:09;;;;;;;4.65;1.60;;;;;;;;;;4960854;28;20029;-75
2022/07/11 01:05:35;;;;;;;5.70;1.85;;;;;;;;;;4956026;28;20870;-75
2022/07/11 01:08:01;;;;;;;4.95;1.88;;;;;;;;;;4958048;28;20050;-76
2022/07/11 01:10:26;;;;;;;6.90;1.80;;;;;;;;;;4960626;28;20113;-74
2022/07/11 01:12:52;;;;;;;6.35;1.73;;;;;;;;;;4974428;28;20066;-74
2022/07/11 01:15:17;;;;;;;5.60;2.10;;;;;;;;;;4959598;28;20119;-75
2022/07/11 01:17:45;;;;;;;5.05;2.10;;;;;;;;;;4966344;28;20160;-74
2022/07/11 01:20:11;;;;;;;6.15;1.90;;;;;;;;;;4969316;28;20053;-74
2022/07/11 01:22:39;;;;;;;7.18;1.80;;;;;;;;;;4963024;28;21010;-74
2022/07/11 01:25:06;;;;;;;7.90;2.40;;;;;;;;;;4966631;28;20124;-73
2022/07/11 01:27:32;;;;;;;10.13;2.08;;;;;;;;;;4965545;28;20034;-74
2022/07/11 01:29:57;;;;;;;6.05;2.15;;;;;;;;;;4961600;28;20034;-74
2022/07/11 01:32:23;;;;;;;6.97;1.98;;;;;;;;;;4964452;28;20065;-75
2022/07/11 01:34:49;;;;;;;7.97;2.15;;;;;;;;;;4962684;28;20026;-72
2022/07/11 01:37:14;;;;;;;6.80;2.25;;;;;;;;;;4968801;28;20458;-74
2022/07/11 01:39:42;;;;;;;6.72;2.20;;;;;;;;;;4962371;28;20042;-74
2022/07/11 01:42:07;;;;;;;9.15;2.20;;;;;;;;;;4963007;28;20038;-73
2022/07/11 01:44:32;;;;;;;10.02;2.45;;;;;;;;;;4968709;28;20106;-74
2022/07/11 01:46:58;;;;;;;11.45;2.78;;;;;;;;;;4964467;28;20038;-74
2022/07/11 01:49:29;;;;;;;6.32;2.33;;;;;;;;;;4962388;28;20034;-74
2022/07/11 01:51:54;;;;;;;8.18;2.33;;;;;;;;;;4946972;28;20530;-74
2022/07/11 01:54:22;;;;;;;10.70;2.83;;;;;;;;;;4963047;28;20054;-75
2022/07/11 01:56:47;;;;;;;8.80;2.22;;;;;;;;;;4964504;28;20026;-73
2022/07/11 01:59:15;;;;;;;9.25;2.30;;;;;;;;;;4963077;28;20034;-74
2022/07/11 02:01:40;;;;;;;9.27;2.53;;;;;;;;;;4960939;28;20872;-74
2022/07/11 02:04:05;;;;;;;11.05;2.63;;;;;;;;;;4961759;28;20112;-75
2022/07/11 02:06:31;;;;;;;7.82;2.42;;;;;;;;;;4964269;28;20125;-74
2022/07/11 02:08:59;;;;;;;7.70;2.20;;;;;;;;;;4966526;28;20034;-75
2022/07/11 02:11:24;;;;;;;6.95;2.53;;;;;;;;;;4955270;28;20852;-75
2022/07/11 02:13:50;;;;;;;6.18;2.13;;;;;;;;;;4967921;28;20030;-74
2022/07/11 02:16:15;;;;;;;7.85;2.30;;;;;;;;;;4964770;28;20046;-74
2022/07/11 02:18:42;;;;;;;10.07;2.10;;;;;;;;;;4967669;28;20034;-75
2022/07/11 02:21:09;;;;;;;7.78;2.70;;;;;;;;;;4968674;28;20050;-74
2022/07/11 02:23:34;;;;;;;7.32;2.28;;;;;;;;;;4967906;28;20134;-74
2022/07/11 02:25:59;;;;;;;7.13;2.58;;;;;;;;;;4963252;28;20034;-75
2022/07/11 02:28:25;;;;;;;5.78;2.17;;;;;;;;;;4966974;28;20026;-75
2022/07/11 02:30:53;;;;;;;5.30;2.13;;;;;;;;;;4964814;28;20846;-73
2022/07/11 02:33:18;;;;;;;7.35;1.92;;;;;;;;;;4966169;28;20038;-72
2022/07/11 02:35:46;;;;;;;6.05;2.05;;;;;;;;;;4943211;28;20058;-74
2022/07/11 02:38:12;;;;;;;5.00;1.50;;;;;;;;;;4961540;28;20030;-73
2022/07/11 02:40:37;;;;;;;4.68;1.35;;;;;;;;;;4960711;28;20291;-74
2022/07/11 02:43:03;;;;;;;4.70;1.40;;;;;;;;;;4962487;28;20058;-74
2022/07/11 02:45:29;;;;;;;5.97;1.23;;;;;;;;;;4965541;28;20582;-76
2022/07/11 02:47:54;;;;;;;5.85;1.17;;;;;;;;;;4967100;28;20116;-76
2022/07/11 02:50:19;;;;;;;4.57;1.50;;;;;;;;;;4963982;28;20022;-75
2022/07/11 02:52:45;;;;;;;6.10;1.80;;;;;;;;;;4960572;28;20030;-75
2022/07/11 02:55:12;;;;;;;3.30;1.30;;;;;;;;;;4973401;28;20140;-75
2022/07/11 02:57:38;;;;;;;3.67;1.20;;;;;;;;;;4964181;28;20049;-75
2022/07/11 03:00:04;;;;;;;3.40;1.23;;;;;;;;;;4962824;28;20034;-75
2022/07/11 03:02:30;;;;;;;3.28;1.20;;;;;;;;;;4962326;28;20535;-75
2022/07/11 03:04:57;;;;;;;4.90;1.42;;;;;;;;;;4961588;28;20034;-75
2022/07/11 03:07:26;;;;;;;7.25;1.85;;;;;;;;;;4961802;28;20027;-75
2022/07/11 03:09:51;;;;;;;3.63;1.45;;;;;;;;;;4961771;28;20046;-75
2022/07/11 03:12:17;;;;;;;4.55;1.33;;;;;;;;;;4970851;28;20076;-75
2022/07/11 03:14:45;;;;;;;6.55;1.50;;;;;;;;;;4962266;28;20125;-74
2022/07/11 03:17:10;;;;;;;6.43;1.63;;;;;;;;;;4989214;28;20125;-73
2022/07/11 03:19:36;;;;;;;7.85;1.83;;;;;;;;;;4975397;28;20586;-74
2022/07/11 03:22:02;;;;;;;8.52;1.65;;;;;;;;;;4957624;28;20027;-74
2022/07/11 03:24:28;;;;;;;8.82;2.20;;;;;;;;;;4968556;28;20037;-74
2022/07/11 03:26:53;;;;;;;6.20;1.95;;;;;;;;;;4960833;28;20030;-74
2022/07/11 03:29:18;;;;;;;6.93;2.28;;;;;;;;;;4970718;28;20196;-75
2022/07/11 03:31:46;;;;;;;9.02;1.92;;;;;;;;;;4973777;28;20694;-76
2022/07/11 03:34:12;;;;;;;7.85;2.00;;;;;;;;;;4961779;28;20033;-75
2022/07/11 03:36:37;;;;;;;4.68;2.05;;;;;;;;;;4963920;28;20038;-75
2022/07/11 03:39:02;;;;;;;6.28;1.85;;;;;;;;;;4970959;28;20033;-76
2022/07/11 03:41:28;;;;;;;4.55;1.70;;;;;;;;;;4974593;28;20034;-74
2022/07/11 03:43:56;;;;;;;5.75;1.63;;;;;;;;;;4968113;28;20614;-75
2022/07/11 03:46:21;;;;;;;3.63;1.73;;;;;;;;;;4972062;28;20045;-75
2022/07/11 03:48:49;;;;;;;4.78;1.80;;;;;;;;;;4967305;28;20045;-75
2022/07/11 03:51:16;;;;;;;3.92;2.08;;;;;;;;;;4974158;28;20026;-73
2022/07/11 03:53:41;;;;;;;5.93;2.00;;;;;;;;;;4980190;28;20018;-73
2022/07/11 03:56:07;;;;;;;3.63;1.95;;;;;;;;;;4962599;28;20157;-74
2022/07/11 03:58:34;;;;;;;6.80;2.33;;;;;;;;;;4964549;28;20038;-73
2022/07/11 04:00:59;;;;;;;6.10;2.13;;;;;;;;;;4976662;28;20176;-74
2022/07/11 04:03:25;;;;;;;5.63;2.13;;;;;;;;;;4968891;28;20635;-74
2022/07/11 04:05:51;;;;;;;4.60;2.38;;;;;;;;;;4961699;28;20141;-75
2022/07/11 04:08:21;;;;;;;4.75;2.30;;;;;;;;;;4963705;28;20591;-74
2022/07/11 04:10:48;;;;;;;6.55;2.13;;;;;;;;;;4973404;28;20833;-75
2022/07/11 04:13:14;;;;;;;3.90;2.13;;;;;;;;;;4973216;28;20105;-75
2022/07/11 04:15:39;;;;;;;2.95;1.60;;;;;;;;;;4963142;28;20489;-74
2022/07/11 04:18:04;;;;;;;5.07;2.08;;;;;;;;;;4972243;28;20808;-73
2022/07/11 04:20:32;;;;;;;5.00;2.10;;;;;;;;;;4965670;28;20125;-74
2022/07/11 04:22:57;;;;;;;3.42;1.98;;;;;;;;;;4973159;28;20113;-74
2022/07/11 04:25:23;;;;;;;2.60;1.70;;;;;;;;;;4971922;28;20039;-74
2022/07/11 04:27:48;;;;;;;2.75;1.80;;;;;;;;;;4963929;28;20183;-74
2022/07/11 04:30:14;;;;;;;4.50;1.75;;;;;;;;;;4974293;28;20053;-75
2022/07/11 04:32:39;;;;;;;4.63;1.90;;;;;;;;;;4961477;28;20114;-75
2022/07/11 04:35:05;;;;;;;7.10;1.60;;;;;;;;;;4962496;28;20092;-74
2022/07/11 04:37:30;;;;;;;2.95;1.40;;;;;;;;;;4960898;28;20039;-74
2022/07/11 04:39:58;;;;;;;3.25;1.30;;;;;;;;;;4959246;28;20038;-73
2022/07/11 04:42:23;;;;;;;6.18;2.35;;;;;;;;;;4959390;28;20030;-72
2022/07/11 04:44:49;;;;;;;7.13;1.88;;;;;;;;;;4958983;28;20030;-73
2022/07/11 04:47:16;;;;;;;6.25;1.52;;;;;;;;;;4961011;28;20027;-71
2022/07/11 04:49:46;;;;;;;5.38;1.52;;;;;;;;;;4953903;28;20030;-73
2022/07/11 04:52:11;;;;;;;9.07;1.60;;;;;;;;;;4951404;28;20038;-74
2022/07/11 04:54:36;;;;;;;8.88;1.50;;;;;;;;;;4961161;28;20042;-73
2022/07/11 04:57:02;;;;;;;4.28;1.80;;;;;;;;;;4959728;28;20069;-72
2022/07/11 04:59:28;;;;;;;6.28;1.80;;;;;;;;;;4958493;28;20038;-73
2022/07/11 05:01:53;;;;;;;4.75;1.77;;;;;;;;;;4955909;28;20036;-73
2022/07/11 05:04:18;;;;;;;4.78;1.77;;;;;;;;;;4980964;28;20048;-71
2022/07/11 05:06:44;;;;;;;5.47;1.70;;;;;;;;;;4954824;28;20145;-72
2022/07/11 05:09:10;;;;;;;8.30;1.80;;;;;;;;;;4958982;28;20098;-72
2022/07/11 05:11:36;;;;;;;6.03;2.40;;;;;;;;;;4953875;28;20097;-73
2022/07/11 05:14:01;;;;;;;10.32;2.00;;;;;;;;;;4961140;28;20039;-72
2022/07/11 05:16:29;;;;;;;3.80;1.75;;;;;;;;;;4961715;28;20057;-72
2022/07/11 05:18:54;;;;;;;4.60;2.00;;;;;;;;;;4958403;28;20037;-71
2022/07/11 05:21:22;;;;;;;5.07;1.85;;;;;;;;;;4956854;28;20054;-72
2022/07/11 05:23:50;;;;;;;8.35;1.90;;;;;;;;;;4964057;28;20074;-71
2022/07/11 05:26:18;;;;;;;4.25;1.92;;;;;;;;;;4953624;28;20034;-73
2022/07/11 05:28:46;;;;;;;4.18;1.40;;;;;;;;;;4922495;28;20112;-72
2022/07/11 05:31:14;;;;;;;2.97;1.80;;;;;;;;;;4956247;28;20998;-72
2022/07/11 05:33:39;;;;;;;6.45;1.85;;;;;;;;;;4954507;28;20038;-73
2022/07/11 05:36:04;;;;;;;10.07;2.25;;;;;;;;;;4956649;28;20062;-73
2022/07/11 05:38:32;;;;;;;8.20;2.22;;;;;;;;;;4957018;28;20119;-73
2022/07/11 05:40:59;;;;;;;6.07;1.85;;;;;;;;;;4949610;28;20053;-73
2022/07/11 05:43:25;;;;;;;7.32;2.60;;;;;;;;;;4953320;28;20049;-71
2022/07/11 05:45:50;;;;;;;5.28;1.98;;;;;;;;;;4955694;28;20035;-72
2022/07/11 05:48:16;;;;;;;7.22;2.20;;;;;;;;;;4958066;28;20034;-72
2022/07/11 05:50:41;;;;;;;9.68;1.90;;;;;;;;;;4952380;28;20031;-72
2022/07/11 05:53:07;;;;;;;4.18;1.88;;;;;;;;;;4956716;28;20782;-72
2022/07/11 05:55:34;;;;;;;7.22;1.88;;;;;;;;;;4958928;28;20214;-72
2022/07/11 05:58:00;;;;;;;7.93;1.60;;;;;;;;;;4956737;28;20280;-72
2022/07/11 06:00:27;;;;;;;4.18;1.63;;;;;;;;;;4959066;28;20053;-72
2022/07/11 06:02:52;;;;;;;2.63;1.50;;;;;;;;;;4950559;28;20140;-72
2022/07/11 06:05:17;;;;;;;2.53;1.50;;;;;;;;;;4941979;28;20113;-70
2022/07/11 06:10:32;;;;;;;4.90;1.60;;;;;;;;;;4960823;28;20038;-71
2022/07/11 06:12:57;;;;;;;2.70;1.50;;;;;;;;;;4961553;28;20812;-71
2022/07/11 06:15:22;;;;;;;4.85;1.48;;;;;;;;;;4957888;28;20049;-71
2022/07/11 06:17:48;;;;;;;4.25;1.40;;;;;;;;;;4964282;28;20034;-69
2022/07/11 06:20:13;;;;;;;4.68;1.50;;;;;;;;;;4959205;28;20038;-71
2022/07/11 06:22:38;;;;;;;4.85;1.92;;;;;;;;;;4958791;28;20042;-71
2022/07/11 06:25:04;;;;;;;5.10;1.50;;;;;;;;;;4992828;28;20035;-71
2022/07/11 06:27:29;;;;;;;4.07;1.50;;;;;;;;;;4958562;28;20030;-72
2022/07/11 06:29:54;;;;;;;3.10;1.63;;;;;;;;;;4957031;28;20873;-71
2022/07/11 06:32:20;;;;;;;3.35;1.70;;;;;;;;;;4964125;28;20161;-71
2022/07/11 06:34:45;;;;;;;3.92;1.40;;;;;;;;;;4963065;28;20034;-73
2022/07/11 06:37:10;;;;;;;4.72;1.42;;;;;;;;;;4960260;28;20045;-71
2022/07/11 06:39:35;;;;;;;2.55;1.30;;;;;;;;;;4955593;28;20069;-72
2022/07/11 06:42:01;;;;;;;2.65;1.20;;;;;;;;;;4962055;28;20061;-71
2022/07/11 06:44:28;;;;;;;5.15;2.40;;;;;;;;;;4960263;28;20023;-71
2022/07/11 06:46:54;;;;;;;5.20;1.30;;;;;;;;;;4959912;28;20077;-72
2022/07/11 06:49:21;;;;;;;1.63;0.93;;;;;;;;;;4961690;28;20430;-71
2022/07/11 06:51:47;;;;;;;2.25;1.13;;;;;;;;;;4960623;28;20054;-72
2022/07/11 06:54:12;;;;;;;1.98;1.00;;;;;;;;;;4959661;28;20037;-72
2022/07/11 06:56:37;;;;;;;2.95;1.17;;;;;;;;;;4968738;28;20035;-71
2022/07/11 06:59:03;;;;;;;3.90;1.30;;;;;;;;;;4955288;28;20027;-71
2022/07/11 07:01:29;;;;;;;2.10;1.10;;;;;;;;;;4960476;28;20057;-71
2022/07/11 07:03:54;;;;;;;2.67;0.90;;;;;;;;;;4964084;28;20035;-70
2022/07/11 07:06:19;;;;;;;3.90;1.10;;;;;;;;;;4956334;28;20046;-72
2022/07/11 07:08:45;;;;;;;1.55;0.80;;;;;;;;;;4956578;28;20038;-74
2022/07/11 07:11:11;;;;;;;2.40;0.93;;;;;;;;;;4960771;28;20525;-75
2022/07/11 07:13:38;;;;;;;1.63;1.00;;;;;;;;;;4962559;28;20455;-75
2022/07/11 07:16:06;;;;;;;2.88;1.17;;;;;;;;;;4961486;28;20043;-75
2022/07/11 07:18:32;;;;;;;3.83;1.00;;;;;;;;;;4958863;28;21075;-74
2022/07/11 07:20:59;;;;;;;3.30;1.08;;;;;;;;;;4965129;28;20046;-74
2022/07/11 07:23:24;;;;;;;3.90;1.20;;;;;;;;;;4964861;28;20034;-74
2022/07/11 07:25:53;;;;;;;2.15;1.05;;;;;;;;;;4961272;28;20486;-73
2022/07/11 07:28:18;;;;;;;2.45;1.00;;;;;;;;;;4958813;28;20081;-74
2022/07/11 07:30:44;;;;;;;1.80;0.93;;;;;;;;;;4958694;28;20034;-74
2022/07/11 07:33:12;;;;;;;2.90;0.73;;;;;;;;;;4962169;28;20045;-75
2022/07/11 07:35:43;;;;;;;1.17;0.80;;;;;;;;;;4961255;28;20038;-73
2022/07/11 07:38:08;;;;;;;1.55;0.80;;;;;;;;;;4943190;28;20046;-74
2022/07/11 07:40:34;;;;;;;2.42;0.80;;;;;;;;;;4961526;28;20131;-74
2022/07/11 07:43:01;;;;;;;1.67;0.73;;;;;;;;;;4959769;28;20112;-75
2022/07/11 07:45:26;;;;;;;1.90;0.93;;;;;;;;;;4961951;28;20034;-75
2022/07/11 07:47:51;;;;;;;1.98;1.00;;;;;;;;;;4959793;28;20224;-75
2022/07/11 07:50:17;;;;;;;2.72;0.80;;;;;;;;;;4961329;28;20443;-74
2022/07/11 07:52:45;;;;;;;3.08;1.05;;;;;;;;;;4960570;28;20594;-75
2022/07/11 07:55:11;;;;;;;2.50;0.88;;;;;;;;;;4959481;28;20093;-69
2022/07/11 07:57:36;;;;;;;2.05;0.70;;;;;;;;;;4959399;28;20526;-74
2022/07/11 08:02:48;;;;;;;2.83;0.80;;;;;;;;;;4960389;28;20157;-74
2022/07/11 08:05:13;;;;;;;0.90;0.60;;;;;;;;;;4957585;28;20229;-74
2022/07/11 08:07:39;;;;;;;1.65;0.90;;;;;;;;;;4960167;28;20070;-73
2022/07/11 08:10:05;;;;;;;1.55;0.60;;;;;;;;;;4959814;28;20073;-73
2022/07/11 08:12:30;;;;;;;2.53;0.73;;;;;;;;;;4960987;28;20037;-74
2022/07/11 08:14:55;;;;;;;1.33;0.50;;;;;;;;;;4960817;28;20283;-75
2022/07/11 08:17:21;;;;;;;1.45;0.60;;;;;;;;;;4966358;28;20038;-74
2022/07/11 08:19:46;;;;;;;2.45;0.45;;;;;;;;;;4960379;28;20038;-75
2022/07/11 08:22:11;;;;;;;2.00;0.60;;;;;;;;;;4956025;28;20026;-73
2022/07/11 08:24:37;;;;;;;0.93;0.55;;;;;;;;;;4953650;28;20035;-74
2022/07/11 08:27:03;;;;;;;0.93;0.50;;;;;;;;;;4953150;28;20054;-74
2022/07/11 08:29:28;;;;;;;1.27;0.60;;;;;;;;;;4961890;28;20741;-74
2022/07/11 08:31:53;;;;;;;2.55;0.50;;;;;;;;;;4958091;28;20358;-71
2022/07/11 08:34:18;;;;;;;1.83;0.40;;;;;;;;;;4955641;28;20188;-75
2022/07/11 08:36:44;;;;;;;1.95;0.50;;;;;;;;;;4962142;28;20227;-74
2022/07/11 08:39:09;;;;;;;1.30;0.55;;;;;;;;;;4959737;28;20050;-73
2022/07/11 08:41:42;;;;;;;1.98;0.60;;;;;;;;;;4940078;28;20046;-75
2022/07/11 08:44:07;;;;;;;0.93;0.40;;;;;;;;;;4965181;28;20042;-75
2022/07/11 08:46:33;;;;;;;1.20;0.40;;;;;;;;;;4959631;28;20035;-74
2022/07/11 08:48:59;;;;;;;1.20;0.40;;;;;;;;;;4958044;28;20030;-74
2022/07/11 08:51:27;;;;;;;1.00;0.40;;;;;;;;;;4963630;28;20046;-74
2022/07/11 08:53:52;;;;;;;1.67;0.40;;;;;;;;;;4959320;28;20031;-75
2022/07/11 08:56:18;;;;;;;1.70;0.40;;;;;;;;;;4960450;28;20084;-75
2022/07/11 08:58:45;;;;;;;0.82;0.45;;;;;;;;;;4957638;28;20034;-71
2022/07/11 09:01:12;;;;;;;1.33;0.40;;;;;;;;;;4959914;28;20529;-71
2022/07/11 09:03:37;;;;;;;0.73;0.40;;;;;;;;;;4961139;28;20038;-71
2022/07/11 09:06:02;;;;;;;1.90;0.50;;;;;;;;;;4959538;28;20050;-72
2022/07/11 09:08:29;;;;;;;0.70;0.38;;;;;;;;;;4957742;28;20030;-69
2022/07/11 09:10:54;;;;;;;2.65;0.45;;;;;;;;;;4959376;28;20109;-69
2022/07/11 09:13:20;;;;;;;0.50;0.32;;;;;;;;;;4960306;28;20034;-70
2022/07/11 09:15:47;;;;;;;0.55;0.30;;;;;;;;;;4961378;28;20074;-68
2022/07/11 09:18:25;;;;;;;1.35;0.60;;;;;;;;;;4976419;28;20027;-70
2022/07/11 09:26:21;;;;;;;0.40;0.40;;;;;;;;;;4960401;28;20031;-71
2022/07/11 09:29:08;;;;;;;1.23;0.30;;;;;;;;;;4960794;28;20841;-71
2022/07/11 09:31:34;;;;;;;0.45;0.22;;;;;;;;;;4960642;28;20478;-71
2022/07/11 09:34:02;;;;;;;0.30;0.20;;;;;;;;;;4961827;28;21977;-70
2022/07/11 09:36:56;;;;;;;0.45;0.30;;;;;;;;;;4962387;28;20046;-71
2022/07/11 09:39:23;;;;;;;2.03;0.57;;;;;;;;;;4957700;28;20124;-71
2022/07/11 09:41:49;;;;;;;1.52;0.30;;;;;;;;;;4962112;28;20793;-72
2022/07/11 09:44:26;;;;;;;0.40;0.30;;;;;;;;;;4962430;28;20045;-71
2022/07/11 09:46:54;;;;;;;0.65;0.30;;;;;;;;;;4959957;28;20138;-72
2022/07/11 09:49:30;;;;;;;3.85;0.52;;;;;;;;;;4959900;28;20035;-72
2022/07/11 09:52:05;;;;;;;0.50;0.40;;;;;;;;;;4954198;28;20093;-71
2022/07/11 09:54:30;;;;;;;2.33;0.45;;;;;;;;;;4960165;28;20185;-69
2022/07/11 09:56:55;;;;;;;3.00;0.50;;;;;;;;;;4955264;28;20165;-69
2022/07/11 09:59:23;;;;;;;1.50;0.30;;;;;;;;;;4963327;28;20026;-72
2022/07/11 10:01:48;;;;;;;0.50;0.40;;;;;;;;;;4961854;28;21814;-70
2022/07/11 10:04:13;;;;;;;0.75;0.40;;;;;;;;;;4962826;28;20817;-71
2022/07/11 10:06:39;;;;;;;0.80;0.35;;;;;;;;;;4960510;28;20038;-71
2022/07/11 10:09:07;;;;;;;1.67;0.60;;;;;;;;;;4964514;28;20034;-70
2022/07/11 10:11:33;;;;;;;1.20;0.60;;;;;;;;;;4979301;28;20027;-70
2022/07/11 10:13:59;;;;;;;1.80;0.60;;;;;;;;;;4964389;28;20148;-71
2022/07/11 10:16:43;;;;;;;0.77;0.40;;;;;;;;;;4968131;28;20057;-69
2022/07/11 10:19:23;;;;;;;1.67;0.30;;;;;;;;;;4961710;28;20097;-71
2022/07/11 10:21:56;;;;;;;1.27;0.40;;;;;;;;;;4960785;28;20043;-70
2022/07/11 10:24:24;;;;;;;0.93;0.40;;;;;;;;;;4963211;28;20035;-70
2022/07/11 10:26:58;;;;;;;2.17;0.45;;;;;;;;;;4954429;28;20061;-70
2022/07/11 10:29:27;;;;;;;1.92;0.40;;;;;;;;;;4967498;28;20037;-71
2022/07/11 10:32:05;;;;;;;0.60;0.47;;;;;;;;;;4961863;28;20104;-71
2022/07/11 10:34:31;;;;;;;3.70;0.57;;;;;;;;;;4962661;28;20030;-70
2022/07/11 10:37:00;;;;;;;0.57;0.30;;;;;;;;;;4969034;28;20037;-70
2022/07/11 10:39:46;;;;;;;1.63;0.40;;;;;;;;;;4961125;28;20034;-69
2022/07/11 10:42:18;;;;;;;2.30;0.40;;;;;;;;;;4956109;28;20058;-70
2022/07/11 10:44:47;;;;;;;2.95;0.40;;;;;;;;;;4963436;28;20232;-70
2022/07/11 10:47:31;;;;;;;0.75;0.40;;;;;;;;;;4991537;28;20870;-70
2022/07/11 10:50:00;;;;;;;0.55;0.45;;;;;;;;;;4964000;28;20053;-70
2022/07/11 10:52:26;;;;;;;0.70;0.50;;;;;;;;;;4958886;28;20046;-71
2022/07/11 10:54:56;;;;;;;1.95;0.55;;;;;;;;;;4961237;28;20133;-71
2022/07/11 10:57:39;;;;;;;1.63;0.55;;;;;;;;;;4963039;28;20035;-70
2022/07/11 11:00:07;;;;;;;2.00;0.40;;;;;;;;;;4961339;28;20056;-69
2022/07/11 11:02:53;;;;;;;0.95;0.40;;;;;;;;;;4961913;28;20597;-71
2022/07/11 11:05:42;;;;;;;1.67;0.43;;;;;;;;;;4964729;28;20085;-71
2022/07/11 11:08:28;;;;;;;0.40;0.40;;;;;;;;;;4963127;28;20034;-71
2022/07/11 11:10:54;;;;;;;1.90;0.40;;;;;;;;;;4962664;28;20034;-71
2022/07/11 11:13:20;;;;;;;2.28;0.50;;;;;;;;;;4961903;28;20081;-71
2022/07/11 11:15:49;;;;;;;0.40;0.40;;;;;;;;;;4960067;28;20096;-68
2022/07/11 11:20:57;;;;;;;0.50;0.40;;;;;;;;;;4960730;28;20211;-68
2022/07/11 11:23:23;;;;;;;1.55;0.40;;;;;;;;;;4964554;28;21817;-67
2022/07/11 11:25:54;;;;;;;2.30;0.50;;;;;;;;;;4963882;28;20041;-68
2022/07/11 11:28:21;;;;;;;3.20;0.40;;;;;;;;;;4959830;28;20089;-68
2022/07/11 11:30:53;;;;;;;2.10;0.40;;;;;;;;;;4961431;28;20045;-70
2022/07/11 11:33:19;;;;;;;1.05;0.45;;;;;;;;;;4958048;28;20764;-67
2022/07/11 11:35:45;;;;;;;2.03;0.40;;;;;;;;;;4961341;28;20064;-67
2022/07/11 11:38:10;;;;;;;1.00;0.30;;;;;;;;;;4961580;28;20034;-68
2022/07/11 11:40:36;;;;;;;1.05;0.40;;;;;;;;;;4958937;28;20050;-68
2022/07/11 11:43:01;;;;;;;0.80;0.40;;;;;;;;;;4958905;28;20896;-68
2022/07/11 11:45:30;;;;;;;2.40;0.60;;;;;;;;;;4960762;28;20066;-68
2022/07/11 11:47:55;;;;;;;3.85;0.50;;;;;;;;;;4956160;28;20659;-69
2022/07/11 11:50:20;;;;;;;0.73;0.40;;;;;;;;;;4966849;28;20034;-68
2022/07/11 11:52:45;;;;;;;1.23;0.40;;;;;;;;;;4963899;28;20034;-67
2022/07/11 11:55:11;;;;;;;2.28;0.60;;;;;;;;;;4966381;28;20030;-70
2022/07/11 11:57:37;;;;;;;1.80;0.60;;;;;;;;;;4963229;28;20701;-70
2022/07/11 12:00:03;;;;;;;2.80;0.55;;;;;;;;;;4966290;28;20030;-67
2022/07/11 12:02:30;;;;;;;1.38;0.77;;;;;;;;;;4977095;28;20042;-69
2022/07/11 12:04:59;;;;;;;3.40;0.50;;;;;;;;;;4963956;28;20037;-69
2022/07/11 12:07:27;;;;;;;0.82;0.50;;;;;;;;;;4970444;28;20604;-67
2022/07/11 12:09:55;;;;;;;1.60;0.75;;;;;;;;;;4978104;28;20038;-68
2022/07/11 12:15:08;;;;;;;1.45;0.50;;;;;;;;;;4964634;28;20106;-67
2022/07/11 12:17:35;;;;;;;3.60;0.70;;;;;;;;;;4948597;28;20046;-68
2022/07/11 12:20:01;;;;;;;2.17;0.52;;;;;;;;;;4960586;28;20078;-68
2022/07/11 12:22:29;;;;;;;1.92;0.60;;;;;;;;;;4968481;28;20206;-67
2022/07/11 12:24:56;;;;;;;1.67;0.50;;;;;;;;;;4966758;28;20030;-68
2022/07/11 12:27:24;;;;;;;0.70;0.60;;;;;;;;;;4964680;28;20026;-67
2022/07/11 12:29:50;;;;;;;1.10;0.77;;;;;;;;;;4967946;28;20048;-68
2022/07/11 12:32:17;;;;;;;1.13;0.60;;;;;;;;;;4982244;28;20026;-68
2022/07/11 12:34:43;;;;;;;1.50;0.63;;;;;;;;;;4964730;28;20034;-67
2022/07/11 12:37:16;;;;;;;0.82;0.60;;;;;;;;;;4963652;28;20086;-68
2022/07/11 12:39:51;;;;;;;5.57;0.90;;;;;;;;;;4966028;28;20031;-67
2022/07/11 12:42:23;;;;;;;0.77;0.60;;;;;;;;;;4958409;28;20052;-66
2022/07/11 12:45:08;;;;;;;1.48;0.70;;;;;;;;;;4965310;28;20022;-67
2022/07/11 12:47:35;;;;;;;2.88;0.85;;;;;;;;;;4962014;28;20145;-68
2022/07/11 12:50:22;;;;;;;1.25;0.70;;;;;;;;;;4980650;28;20038;-69
2022/07/11 12:52:48;;;;;;;1.15;0.88;;;;;;;;;;4963017;28;20018;-68
2022/07/11 12:55:29;;;;;;;1.20;0.70;;;;;;;;;;4966765;28;20038;-66
2022/07/11 12:58:08;;;;;;;1.17;0.77;;;;;;;;;;4967285;28;20118;-68
2022/07/11 13:00:36;;;;;;;0.98;0.60;;;;;;;;;;4964710;28;20057;-68
2022/07/11 13:03:01;;;;;;;1.42;0.77;;;;;;;;;;4984863;28;20056;-67
2022/07/11 13:05:27;;;;;;;1.85;0.73;;;;;;;;;;4960171;28;20038;-67
2022/07/11 13:10:51;;;;;;;1.08;0.60;;;;;;;;;;4966381;28;20038;-67
2022/07/11 13:13:17;;;;;;;0.95;0.50;;;;;;;;;;4960258;28;20030;-68
2022/07/11 13:15:44;;;;;;;1.00;0.70;;;;;;;;;;4959987;28;20042;-67
2022/07/11 13:18:10;;;;;;;1.15;0.70;;;;;;;;;;4966570;28;20114;-67
2022/07/11 13:20:35;;;;;;;1.17;0.63;;;;;;;;;;4970772;28;20528;-67
2022/07/11 13:23:00;;;;;;;2.20;0.85;;;;;;;;;;4978154;28;20036;-67
2022/07/11 13:25:26;;;;;;;1.98;0.95;;;;;;;;;;4973626;28;20437;-67
2022/07/11 13:27:52;;;;;;;0.73;0.70;;;;;;;;;;4963194;28;20168;-67
2022/07/11 13:30:20;;;;;;;1.20;0.80;;;;;;;;;;4965608;28;20034;-67
2022/07/11 13:32:46;;;;;;;1.13;0.68;;;;;;;;;;4970261;28;20246;-68
2022/07/11 13:35:12;;;;;;;1.52;0.90;;;;;;;;;;4967548;28;20093;-66
2022/07/11 13:37:40;;;;;;;1.10;0.75;;;;;;;;;;4967776;28;20048;-67
2022/07/11 13:40:06;;;;;;;1.23;0.90;;;;;;;;;;4973561;28;20038;-66
2022/07/11 13:42:32;;;;;;;2.13;0.85;;;;;;;;;;4967120;28;20094;-67
2022/07/11 13:45:06;;;;;;;0.85;0.75;;;;;;;;;;4966920;28;20832;-68
2022/07/11 13:47:34;;;;;;;1.52;0.80;;;;;;;;;;4973237;28;20031;-68
2022/07/11 13:49:59;;;;;;;1.98;1.00;;;;;;;;;;4981134;28;20050;-68
2022/07/11 13:52:25;;;;;;;1.48;0.80;;;;;;;;;;4966095;28;20097;-67
2022/07/11 13:54:51;;;;;;;1.52;0.70;;;;;;;;;;4962690;28;20081;-69
2022/07/11 13:57:16;;;;;;;0.70;0.70;;;;;;;;;;4945128;28;20174;-68
2022/07/11 13:59:41;;;;;;;1.73;0.80;;;;;;;;;;4964060;28;20038;-68
2022/07/11 14:02:09;;;;;;;2.58;0.70;;;;;;;;;;4959230;28;20042;-68
2022/07/11 14:04:34;;;;;;;4.00;1.00;;;;;;;;;;4965757;28;20510;-69
2022/07/11 14:07:00;;;;;;;1.58;0.90;;;;;;;;;;4964321;28;20061;-65
2022/07/11 14:09:28;;;;;;;3.40;0.93;;;;;;;;;;4961401;28;20610;-68
2022/07/11 14:11:54;;;;;;;1.40;0.63;;;;;;;;;;4954941;28;20054;-69
2022/07/11 14:14:21;;;;;;;0.88;0.70;;;;;;;;;;4966259;28;20038;-71
2022/07/11 14:16:47;;;;;;;1.67;0.60;;;;;;;;;;4967034;28;20069;-67
2022/07/11 14:19:13;;;;;;;2.53;0.90;;;;;;;;;;4963989;28;20034;-68
2022/07/11 14:21:38;;;;;;;2.30;0.90;;;;;;;;;;4964840;28;20078;-67
2022/07/11 14:24:04;;;;;;;2.45;0.73;;;;;;;;;;4968210;28;20045;-67
2022/07/11 14:26:29;;;;;;;1.65;0.70;;;;;;;;;;4965122;28;20030;-67
2022/07/11 14:28:55;;;;;;;4.07;1.00;;;;;;;;;;4965908;28;20034;-68
2022/07/11 14:31:22;;;;;;;3.33;0.88;;;;;;;;;;4968866;28;20034;-67
2022/07/11 14:33:48;;;;;;;1.83;0.60;;;;;;;;;;4963954;28;20038;-70
2022/07/11 14:36:14;;;;;;;1.67;0.80;;;;;;;;;;4960900;28;20060;-69
2022/07/11 14:38:41;;;;;;;1.92;0.70;;;;;;;;;;4965590;28;20809;-67
2022/07/11 14:41:07;;;;;;;2.90;0.90;;;;;;;;;;4966154;28;20089;-68
2022/07/11 14:43:32;;;;;;;2.47;0.90;;;;;;;;;;4964568;28;20652;-68
2022/07/11 14:45:58;;;;;;;2.47;0.70;;;;;;;;;;4964036;28;20111;-68
2022/07/11 14:48:23;;;;;;;2.70;0.70;;;;;;;;;;4962115;28;20038;-68
2022/07/11 14:50:49;;;;;;;2.33;0.63;;;;;;;;;;4960528;28;20076;-68
2022/07/11 14:53:14;;;;;;;4.07;0.95;;;;;;;;;;4966761;28;20034;-74
2022/07/11 14:55:39;;;;;;;1.98;0.80;;;;;;;;;;4963205;28;20844;-69
2022/07/11 14:58:08;;;;;;;2.83;0.80;;;;;;;;;;4971791;28;20696;-68
2022/07/11 15:00:33;;;;;;;2.38;0.98;;;;;;;;;;4961088;28;20109;-66
2022/07/11 15:05:42;;;;;;;1.45;0.70;;;;;;;;;;4958973;28;20046;-68